createdAt,value
2022-10-06T00:01:10.059Z,2.85
2022-10-06T00:06:16.081Z,3.80
2022-10-06T00:11:20.242Z,3.72
2022-10-06T00:16:25.720Z,2.42
2022-10-06T00:21:30.229Z,3.17
2022-10-06T00:26:35.060Z,2.47
2022-10-06T00:31:40.591Z,3.97
2022-10-06T00:36:45.256Z,4.72
2022-10-06T00:41:49.423Z,4.68
2022-10-06T00:46:56.461Z,2.65
2022-10-06T00:52:06.773Z,2.85
2022-10-06T00:57:11.798Z,6.65
2022-10-06T01:02:23.450Z,2.47
2022-10-06T01:07:30.074Z,4.30
2022-10-06T01:12:36.268Z,2.88
2022-10-06T01:17:47.245Z,3.20
2022-10-06T01:22:58.168Z,2.22
2022-10-06T01:28:05.582Z,3.35
2022-10-06T01:33:10.678Z,3.45
2022-10-06T01:38:17.130Z,2.45
2022-10-06T01:43:22.800Z,3.55
2022-10-06T01:48:27.998Z,2.45
2022-10-06T01:53:36.932Z,2.20
2022-10-06T01:58:42.363Z,2.60
2022-10-06T02:03:47.729Z,2.65
2022-10-06T02:08:53.139Z,2.75
2022-10-06T02:13:57.427Z,2.15
2022-10-06T02:19:01.693Z,1.70
2022-10-06T02:24:07.316Z,6.28
2022-10-06T02:29:11.286Z,4.22
2022-10-06T02:34:15.485Z,4.13
2022-10-06T02:39:21.070Z,61.00
2022-10-06T02:44:25.875Z,17.52
2022-10-06T02:49:34.641Z,3.40
2022-10-06T02:54:40.128Z,2.63
2022-10-06T02:59:44.329Z,3.22
2022-10-06T03:04:48.480Z,3.35
2022-10-06T03:09:55.437Z,4.57
2022-10-06T03:15:01.806Z,3.70
2022-10-06T03:20:07.136Z,3.25
2022-10-06T03:25:13.067Z,5.20
2022-10-06T03:30:18.194Z,2.38
2022-10-06T03:35:22.336Z,43.70
2022-10-06T03:40:30.128Z,14.85
2022-10-06T03:45:34.411Z,16.40
2022-10-06T03:50:38.620Z,21.92
2022-10-06T03:55:44.058Z,33.40
2022-10-06T04:00:49.687Z,22.65
2022-10-06T04:05:55.193Z,29.17
2022-10-06T04:11:08.070Z,18.92
2022-10-06T04:16:17.210Z,12.38
2022-10-06T04:21:22.087Z,13.18
2022-10-06T04:26:30.596Z,11.05
2022-10-06T04:31:37.539Z,13.77
2022-10-06T04:36:43.802Z,23.98
2022-10-06T04:41:54.411Z,32.83
2022-10-06T04:47:02.833Z,24.42
2022-10-06T04:52:07.364Z,21.65
2022-10-06T04:57:15.579Z,22.85
2022-10-06T05:02:21.461Z,14.63
2022-10-06T05:07:29.717Z,16.40
2022-10-06T05:12:36.526Z,26.33
2022-10-06T05:17:41.148Z,19.58
2022-10-06T05:22:46.160Z,13.05
2022-10-06T05:27:51.883Z,12.02
2022-10-06T05:32:55.998Z,20.08
2022-10-06T05:38:01.557Z,17.40
2022-10-06T05:43:07.679Z,20.25
2022-10-06T05:48:12.070Z,17.27
2022-10-06T05:53:16.800Z,16.23
2022-10-06T05:58:22.266Z,26.73
2022-10-06T06:03:26.649Z,20.58
2022-10-06T06:08:32.031Z,18.08
2022-10-06T06:13:41.521Z,19.52
2022-10-06T06:18:51.041Z,15.52
2022-10-06T06:23:56.291Z,9.18
2022-10-06T06:29:04.064Z,9.50
2022-10-06T06:34:12.499Z,13.68
2022-10-06T06:39:20.468Z,10.82
2022-10-06T06:44:28.167Z,7.82
2022-10-06T06:49:43.102Z,8.23
2022-10-06T06:54:50.232Z,4.07
2022-10-06T07:00:02.780Z,5.27
2022-10-06T07:05:13.381Z,5.93
2022-10-06T07:10:17.655Z,5.35
2022-10-06T07:15:40.694Z,3.85
2022-10-06T07:21:03.529Z,6.13
2022-10-06T07:26:08.431Z,6.90
2022-10-06T07:31:14.016Z,11.18
2022-10-06T07:36:18.849Z,8.15
2022-10-06T07:41:23.083Z,8.00
2022-10-06T07:46:33.962Z,2.47
2022-10-06T07:51:51.004Z,4.72
2022-10-06T07:56:57.121Z,3.42
2022-10-06T08:02:02.487Z,2.60
2022-10-06T08:07:10.591Z,5.22
2022-10-06T08:12:31.131Z,1.70
2022-10-06T08:17:37.667Z,1.38
2022-10-06T08:22:42.972Z,2.72
2022-10-06T08:27:52.655Z,6.80
2022-10-06T08:33:00.242Z,1.10
2022-10-06T08:38:04.234Z,1.00
2022-10-06T08:43:17.008Z,2.55
2022-10-06T08:48:30.260Z,1.20
2022-10-06T08:53:40.412Z,6.10
2022-10-06T08:58:53.748Z,4.32
2022-10-06T09:04:02.401Z,1.88
2022-10-06T09:09:18.382Z,1.67
2022-10-06T09:14:29.567Z,2.10
2022-10-06T09:19:42.831Z,0.98
2022-10-06T09:24:50.361Z,0.98
2022-10-06T09:29:54.914Z,0.80
2022-10-06T09:35:00.873Z,1.75
2022-10-06T09:40:29.526Z,1.42
2022-10-06T09:45:33.512Z,0.97
2022-10-06T09:50:38.896Z,14.05
2022-10-06T09:55:46.545Z,1.77
2022-10-06T10:00:55.668Z,2.13
2022-10-06T10:06:05.343Z,1.55
2022-10-06T10:11:40.276Z,3.05
2022-10-06T10:16:45.557Z,1.42
2022-10-06T10:21:59.027Z,1.92
2022-10-06T10:27:13.311Z,1.90
2022-10-06T10:32:21.451Z,1.38
2022-10-06T10:37:32.769Z,1.30
2022-10-06T10:42:45.540Z,2.95
2022-10-06T10:47:50.725Z,2.30
2022-10-06T10:53:01.909Z,7.18
2022-10-06T10:58:13.021Z,2.00
2022-10-06T11:03:17.075Z,2.28
2022-10-06T11:08:30.688Z,1.95
2022-10-06T11:13:40.914Z,1.10
2022-10-06T11:18:55.851Z,3.80
2022-10-06T11:24:18.614Z,1.13
2022-10-06T11:29:35.874Z,3.95
2022-10-06T11:34:41.192Z,2.17
2022-10-06T11:39:54.472Z,2.28
2022-10-06T11:45:05.239Z,5.40
2022-10-06T11:50:37.268Z,1.95
2022-10-06T11:55:48.370Z,0.80
2022-10-06T12:00:54.826Z,0.80
2022-10-06T12:06:03.252Z,1.13
2022-10-06T12:11:46.516Z,3.50
2022-10-06T12:17:18.280Z,0.68
2022-10-06T12:22:30.767Z,0.57
2022-10-06T12:27:56.718Z,2.33
2022-10-06T12:33:05.782Z,2.05
2022-10-06T12:38:43.294Z,0.55
2022-10-06T12:43:55.247Z,4.78
2022-10-06T12:49:26.840Z,0.68
2022-10-06T12:54:37.111Z,2.58
2022-10-06T12:59:42.397Z,0.60
2022-10-06T13:04:52.346Z,1.02
2022-10-06T13:10:18.396Z,1.15
2022-10-06T13:15:25.284Z,0.40
2022-10-06T13:20:41.521Z,3.15
2022-10-06T13:25:49.548Z,1.08
2022-10-06T13:30:55.286Z,0.70
2022-10-06T13:36:01.224Z,0.60
2022-10-06T13:41:24.700Z,0.93
2022-10-06T13:46:32.433Z,0.93
2022-10-06T13:51:37.976Z,0.97
2022-10-06T13:56:42.033Z,1.20
2022-10-06T14:01:46.182Z,5.13
2022-10-06T14:06:54.482Z,1.02
2022-10-06T14:12:05.383Z,0.85
2022-10-06T14:17:22.615Z,0.77
2022-10-06T14:22:37.542Z,2.45
2022-10-06T14:27:41.537Z,1.40
2022-10-06T14:32:47.932Z,2.95
2022-10-06T14:37:53.636Z,2.08
2022-10-06T14:42:57.670Z,3.30
2022-10-06T14:48:01.757Z,2.20
2022-10-06T14:53:10.687Z,4.35
2022-10-06T15:03:19.566Z,1.52
2022-10-06T15:08:25.208Z,3.67
2022-10-06T15:13:32.101Z,1.40
2022-10-06T15:18:39.501Z,2.63
2022-10-06T15:23:49.568Z,15.18
2022-10-06T15:29:03.213Z,25.95
2022-10-06T15:34:09.520Z,7.57
2022-10-06T15:39:17.951Z,7.95
2022-10-06T15:44:26.031Z,3.42
2022-10-06T15:49:32.866Z,6.67
2022-10-06T15:54:40.803Z,21.50
2022-10-06T15:59:45.614Z,19.40
2022-10-06T16:05:18.846Z,22.90
2022-10-06T16:10:24.513Z,14.52
2022-10-06T16:15:28.465Z,11.48
2022-10-06T16:20:32.448Z,10.52
2022-10-06T16:25:37.757Z,37.30
2022-10-06T16:30:42.291Z,21.98
2022-10-06T16:35:55.062Z,15.15
2022-10-06T16:41:02.942Z,26.40
2022-10-06T16:46:09.525Z,17.98
2022-10-06T16:51:19.351Z,22.23
2022-10-06T16:56:27.154Z,26.55
2022-10-06T17:01:32.878Z,15.45
2022-10-06T17:06:39.408Z,41.58
2022-10-06T17:11:46.936Z,33.97
2022-10-06T17:16:53.640Z,44.22
2022-10-06T17:22:00.182Z,30.70
2022-10-06T17:27:06.412Z,18.52
2022-10-06T17:32:10.416Z,21.60
2022-10-06T17:37:14.380Z,30.38
2022-10-06T17:42:19.736Z,51.35
2022-10-06T17:47:23.682Z,7.78
2022-10-06T17:52:27.758Z,7.20
2022-10-06T17:57:35.219Z,10.63
2022-10-06T18:02:40.610Z,17.45
2022-10-06T18:07:45.128Z,26.02
2022-10-06T18:12:51.893Z,29.17
2022-10-06T18:17:56.059Z,21.92
2022-10-06T18:23:00.622Z,10.07
2022-10-06T18:28:08.787Z,8.35
2022-10-06T18:36:09.541Z,14.35
2022-10-06T18:38:40.402Z,15.00
2022-10-06T18:43:54.159Z,22.05
2022-10-06T18:49:00.089Z,10.07
2022-10-06T18:54:06.483Z,7.10
2022-10-06T18:59:14.001Z,22.00
2022-10-06T19:04:19.720Z,21.35
2022-10-06T19:09:26.379Z,12.93
2022-10-06T19:14:35.841Z,4.72
2022-10-06T19:24:47.902Z,18.02
2022-10-06T19:29:56.909Z,10.50
2022-10-06T19:35:01.256Z,6.38
2022-10-06T19:40:08.245Z,10.43
2022-10-06T19:45:14.416Z,6.50
2022-10-06T19:50:19.331Z,10.35
2022-10-06T19:55:24.565Z,7.88
2022-10-06T20:00:31.369Z,17.70
2022-10-06T20:05:38.510Z,32.70
2022-10-06T20:10:42.468Z,22.02
2022-10-06T20:15:48.128Z,21.77
2022-10-06T20:20:58.539Z,9.32
2022-10-06T20:26:14.175Z,7.40
2022-10-06T20:31:24.229Z,3.38
2022-10-06T20:36:29.864Z,7.55
2022-10-06T20:41:34.879Z,5.03
2022-10-06T20:46:40.915Z,3.30
2022-10-06T20:51:50.508Z,7.65
2022-10-06T20:56:56.128Z,8.18
2022-10-06T21:02:01.478Z,12.77
2022-10-06T21:07:07.546Z,9.93
2022-10-06T21:12:16.827Z,7.60
2022-10-06T21:17:22.993Z,7.15
2022-10-06T21:22:31.493Z,7.03
2022-10-06T21:27:36.033Z,5.43
2022-10-06T21:32:42.625Z,3.15
2022-10-06T21:37:49.177Z,2.60
2022-10-06T21:42:54.395Z,5.00
2022-10-06T21:47:59.729Z,4.13
2022-10-06T21:53:03.712Z,4.80
2022-10-06T21:58:07.777Z,4.95
2022-10-06T22:03:14.476Z,2.83
2022-10-06T22:08:18.509Z,3.88
2022-10-06T22:13:22.422Z,5.45
2022-10-06T22:18:27.877Z,6.43
2022-10-06T22:23:31.895Z,3.22
2022-10-06T22:28:36.260Z,3.50
2022-10-06T22:33:42.380Z,2.33
2022-10-06T22:38:46.611Z,1.67
2022-10-06T22:43:53.331Z,1.50
2022-10-06T22:48:58.811Z,2.22
2022-10-06T22:54:03.252Z,2.58
2022-10-06T22:59:07.191Z,1.95
2022-10-06T23:04:12.615Z,5.38
2022-10-06T23:09:16.736Z,1.92
2022-10-06T23:14:20.752Z,2.45
2022-10-06T23:19:27.180Z,4.30
2022-10-06T23:24:32.054Z,1.65
2022-10-06T23:29:36.321Z,1.27
2022-10-06T23:34:41.774Z,2.95
2022-10-06T23:39:45.770Z,2.40
2022-10-06T23:44:49.708Z,2.40
2022-10-06T23:49:55.006Z,3.33
2022-10-06T23:54:58.938Z,2.45
